ENEV/EVE METAR and TAF weather

Enter ICAO airport designator
Station Type Date Time Source
ENEV METAR 2022/08/12 14:50 UTC NOAA

ENEV 121450Z 24013KT 220V290 9999 -RA SCT022 BKN047 12/08 Q1019 RMK WIND 1400FT 24023KT


Station Type Date Time Source
ENEV Decoded METAR 2022/08/12 14:50 UTC NOAA

Evenes, Norway (ENEV) 68-31N 016-41E 26M
Aug 12, 2022 - 10:50 AM EDT / 2022.08.12 1450 UTC
Wind: from the WSW (240 degrees) at 15 MPH (13 KT) (direction variable):0
Visibility: greater than 7 mile(s):0
Sky conditions: mostly cloudy
Weather: light rain
Temperature: 53 F (12 C)
Dew Point: 46 F (8 C)
Relative Humidity: 76%
Pressure (altimeter): 30.09 in. Hg (1019 hPa)
ob: ENEV 121450Z 24013KT 220V290 9999 -RA SCT022 BKN047 12/08 Q1019 RMK WIND 1400FT 24023KT
cycle: 15

Station Type Date Time Source
ENEV TAF 2022/08/12 12:57 UTC NOAA

TAF ENEV 121100Z 1212/1312 24009KT 9999 -SHRA FEW020 BKN030
TEMPO 1212/1218 25015G25KT

Example: see airport list